Moscow, Pennsylvania
Current Conditions -  °F | °C
As of 11:54 AM on Friday 31 Oct 2014 (Local Time) from KAVP Reporting Station
Clear Clear  
Wind Chill: 46°   Ceiling: Unl
Heat Index: 49°   Visibility: 10mi
Dew Point: 33°   Wind: 7mph
Humidity: 54%   Direction: 40°NE
Pressure: 29.97"   Gusts: NA
Location:  41.34°N, 75.52°W
Report Text: KAVP 311554Z AUTO 04006KT 10SM CLR 09/01 A2997 RMK AO2 SLP150 T00940006
Loading
Personal Weather Stations






























Interactive Weather Map
Tropical Storm Tracking
New forecast layout! Learn more

10-Day Weather Forecast

Advertisements
Track Severe Weather on mobile